createdAt,value
2023-01-29T00:02:06.842Z,4.10
2023-01-29T00:04:33.453Z,4.63
2023-01-29T00:07:00.382Z,6.47
2023-01-29T00:09:28.732Z,3.40
2023-01-29T00:11:55.432Z,7.17
2023-01-29T00:14:22.213Z,4.77
2023-01-29T00:16:49.033Z,4.00
2023-01-29T00:19:15.696Z,4.47
2023-01-29T00:21:42.355Z,3.13
2023-01-29T00:24:09.074Z,4.67
2023-01-29T00:26:35.820Z,6.03
2023-01-29T00:29:02.779Z,6.73
2023-01-29T00:31:29.972Z,3.50
2023-01-29T00:33:57.347Z,6.33
2023-01-29T00:36:25.641Z,4.20
2023-01-29T00:39:02.523Z,5.00
2023-01-29T00:41:49.663Z,5.77
2023-01-29T00:44:35.124Z,7.20
2023-01-29T00:47:02.576Z,4.03
2023-01-29T00:49:30.524Z,3.50
2023-01-29T00:52:16.133Z,4.67
2023-01-29T00:54:42.834Z,3.13
2023-01-29T00:57:09.673Z,4.13
2023-01-29T00:59:36.344Z,3.70
2023-01-29T01:02:21.818Z,4.07
2023-01-29T01:04:48.518Z,3.47
2023-01-29T01:07:15.300Z,5.30
2023-01-29T01:10:00.745Z,2.07
2023-01-29T01:12:28.474Z,3.53
2023-01-29T01:14:55.534Z,5.17
2023-01-29T01:17:22.257Z,5.53
2023-01-29T01:19:49.161Z,5.27
2023-01-29T01:22:15.861Z,4.80
2023-01-29T01:24:42.691Z,7.17
2023-01-29T01:27:09.427Z,5.10
2023-01-29T01:29:36.601Z,2.97
2023-01-29T01:32:03.499Z,5.40
2023-01-29T01:34:30.282Z,5.43
2023-01-29T01:36:57.209Z,3.07
2023-01-29T01:39:25.153Z,2.90
2023-01-29T01:41:55.720Z,6.80
2023-01-29T01:44:56.256Z,7.97
2023-01-29T01:47:28.531Z,4.43
2023-01-29T01:49:56.601Z,2.50
2023-01-29T01:52:23.501Z,2.83
2023-01-29T01:54:51.874Z,4.00
2023-01-29T01:57:24.982Z,3.97
2023-01-29T02:00:01.354Z,2.77
2023-01-29T02:02:46.656Z,4.93
2023-01-29T02:05:32.981Z,3.97
2023-01-29T02:08:18.161Z,1.77
2023-01-29T02:10:47.452Z,2.93
2023-01-29T02:13:18.841Z,1.97
2023-01-29T02:15:48.916Z,4.20
2023-01-29T02:18:21.217Z,3.70
2023-01-29T02:21:25.302Z,2.63
2023-01-29T02:24:00.835Z,5.23
2023-01-29T02:26:49.910Z,2.83
2023-01-29T02:29:30.659Z,4.60
2023-01-29T02:32:12.701Z,3.63
2023-01-29T02:35:06.203Z,4.90
2023-01-29T02:37:40.420Z,4.87
2023-01-29T02:40:44.139Z,3.30
2023-01-29T02:43:35.691Z,3.90
2023-01-29T02:46:05.491Z,3.57
2023-01-29T02:49:01.477Z,3.20
2023-01-29T02:51:31.201Z,6.27
2023-01-29T02:54:10.613Z,5.03
2023-01-29T02:56:49.456Z,8.27
2023-01-29T02:59:20.799Z,4.77
2023-01-29T03:01:55.931Z,4.30
2023-01-29T03:04:33.659Z,8.27
2023-01-29T03:07:04.361Z,13.37
2023-01-29T03:09:37.033Z,9.80
2023-01-29T03:12:19.991Z,7.10
2023-01-29T03:15:08.213Z,9.10
2023-01-29T03:17:45.911Z,8.67
2023-01-29T03:20:17.276Z,9.43
2023-01-29T03:22:46.813Z,14.17
2023-01-29T03:25:33.067Z,8.63
2023-01-29T03:28:20.293Z,4.37
2023-01-29T03:31:16.175Z,9.20
2023-01-29T03:33:55.590Z,4.20
2023-01-29T03:36:37.963Z,4.00
2023-01-29T03:39:09.196Z,4.20
2023-01-29T03:41:47.691Z,4.97
2023-01-29T03:44:42.229Z,7.10
2023-01-29T03:47:32.025Z,6.20
2023-01-29T03:50:17.577Z,6.77
2023-01-29T03:53:09.272Z,11.83
2023-01-29T03:56:01.307Z,5.93
2023-01-29T03:59:01.094Z,12.47
2023-01-29T04:01:37.084Z,6.10
2023-01-29T04:04:08.450Z,14.43
2023-01-29T04:06:38.028Z,4.80
2023-01-29T04:09:11.150Z,6.20
2023-01-29T04:11:41.976Z,7.47
2023-01-29T04:14:09.340Z,6.43
2023-01-29T04:16:38.750Z,13.73
2023-01-29T04:19:06.076Z,8.57
2023-01-29T04:21:33.632Z,6.73
2023-01-29T04:24:00.425Z,10.10
2023-01-29T04:26:56.662Z,5.93
2023-01-29T04:29:54.461Z,6.33
2023-01-29T04:32:31.352Z,4.67
2023-01-29T04:35:32.453Z,8.30
2023-01-29T04:38:07.396Z,5.37
2023-01-29T04:40:44.273Z,13.60
2023-01-29T04:43:18.353Z,6.43
2023-01-29T04:46:03.357Z,12.53
2023-01-29T04:48:48.909Z,8.53
2023-01-29T04:51:44.953Z,5.40
2023-01-29T04:54:18.832Z,8.97
2023-01-29T04:57:04.409Z,13.43
2023-01-29T04:59:33.801Z,5.67
2023-01-29T05:02:02.644Z,6.63
2023-01-29T05:04:32.811Z,12.03
2023-01-29T05:07:03.533Z,2.50
2023-01-29T05:09:30.449Z,5.40
2023-01-29T05:11:57.446Z,5.87
2023-01-29T05:14:25.241Z,5.03
2023-01-29T05:16:53.401Z,5.17
2023-01-29T05:19:19.991Z,4.87
2023-01-29T05:21:48.464Z,6.60
2023-01-29T05:24:23.518Z,5.80
2023-01-29T05:27:11.044Z,6.70
2023-01-29T05:29:37.962Z,4.77
2023-01-29T05:32:04.694Z,6.47
2023-01-29T05:34:31.229Z,7.90
2023-01-29T05:36:57.820Z,5.43
2023-01-29T05:39:24.468Z,7.10
2023-01-29T05:41:51.110Z,4.60
2023-01-29T05:44:17.736Z,10.13
2023-01-29T05:46:45.170Z,6.93
2023-01-29T05:49:12.310Z,3.40
2023-01-29T05:51:39.052Z,6.40
2023-01-29T05:54:05.689Z,8.40
2023-01-29T05:56:32.307Z,8.00
2023-01-29T05:58:58.930Z,4.73
2023-01-29T06:01:26.505Z,6.63
2023-01-29T06:03:53.111Z,4.07
2023-01-29T06:06:19.795Z,4.20
2023-01-29T06:08:46.409Z,5.10
2023-01-29T06:11:14.396Z,3.83
2023-01-29T06:13:41.173Z,7.90
2023-01-29T06:16:08.924Z,4.67
2023-01-29T06:18:39.446Z,3.43
2023-01-29T06:21:08.665Z,10.63
2023-01-29T06:23:35.805Z,4.23
2023-01-29T06:26:04.391Z,8.73
2023-01-29T06:28:31.413Z,7.70
2023-01-29T06:31:08.319Z,5.20
2023-01-29T06:33:43.119Z,5.20
2023-01-29T06:36:09.967Z,5.07
2023-01-29T06:38:36.771Z,5.63
2023-01-29T06:41:14.328Z,4.13
2023-01-29T06:43:44.404Z,4.33
2023-01-29T06:46:11.330Z,4.50
2023-01-29T06:48:38.135Z,4.77
2023-01-29T06:51:06.816Z,4.63
2023-01-29T06:53:34.752Z,3.57
2023-01-29T06:56:01.678Z,6.17
2023-01-29T06:58:28.316Z,3.60
2023-01-29T07:00:55.035Z,3.80
2023-01-29T07:03:21.941Z,3.80
2023-01-29T07:05:52.997Z,4.67
2023-01-29T07:08:22.729Z,7.70
2023-01-29T07:10:50.542Z,2.53
2023-01-29T07:13:17.652Z,2.33
2023-01-29T07:15:44.766Z,2.60
2023-01-29T07:18:14.288Z,2.67
2023-01-29T07:20:41.694Z,4.57
2023-01-29T07:23:13.020Z,3.20
2023-01-29T07:25:40.659Z,4.13
2023-01-29T07:28:07.471Z,3.90
2023-01-29T07:30:34.341Z,4.70
2023-01-29T07:33:08.328Z,3.33
2023-01-29T07:35:42.918Z,7.43
2023-01-29T07:38:10.979Z,9.13
2023-01-29T07:40:37.870Z,19.50
2023-01-29T07:43:06.250Z,7.23
2023-01-29T07:45:35.531Z,6.97
2023-01-29T07:48:05.077Z,14.37
2023-01-29T07:50:32.942Z,9.00
2023-01-29T07:52:59.710Z,8.67
2023-01-29T07:55:26.692Z,8.37
2023-01-29T07:58:01.715Z,5.00
2023-01-29T08:00:29.753Z,3.67
2023-01-29T08:03:04.782Z,5.77
2023-01-29T08:05:31.574Z,4.70
2023-01-29T08:08:06.603Z,5.40
2023-01-29T08:10:37.868Z,5.00
2023-01-29T08:13:06.042Z,5.07
2023-01-29T08:15:32.804Z,9.87
2023-01-29T08:18:01.600Z,25.20
2023-01-29T08:20:28.778Z,26.43
2023-01-29T08:23:00.458Z,7.73
2023-01-29T08:25:27.534Z,11.57
2023-01-29T08:27:54.671Z,8.40
2023-01-29T08:30:21.421Z,9.27
2023-01-29T08:32:48.040Z,10.00
2023-01-29T08:35:14.858Z,21.10
2023-01-29T08:37:41.680Z,27.90
2023-01-29T08:40:11.006Z,26.30
2023-01-29T08:42:37.838Z,21.30
2023-01-29T08:45:05.808Z,16.77
2023-01-29T08:47:32.460Z,12.43
2023-01-29T08:49:59.219Z,4.10
2023-01-29T08:52:26.091Z,2.60
2023-01-29T08:54:52.919Z,4.70
2023-01-29T08:57:19.669Z,5.80
2023-01-29T08:59:46.448Z,5.37
2023-01-29T09:02:13.193Z,4.17
2023-01-29T09:04:39.960Z,6.67
2023-01-29T09:07:06.683Z,12.97
2023-01-29T09:09:33.362Z,5.57
2023-01-29T09:12:00.177Z,8.97
2023-01-29T09:14:27.784Z,9.13
2023-01-29T09:16:54.620Z,14.07
2023-01-29T09:19:21.371Z,10.13
2023-01-29T09:21:49.576Z,6.43
2023-01-29T09:24:16.381Z,11.93
2023-01-29T09:26:43.236Z,11.50
2023-01-29T09:29:10.823Z,8.60
2023-01-29T09:31:37.680Z,10.30
2023-01-29T09:34:04.606Z,5.30
2023-01-29T09:36:32.467Z,6.37
2023-01-29T09:38:59.360Z,6.80
2023-01-29T09:41:38.719Z,6.67
2023-01-29T09:44:14.623Z,7.37
2023-01-29T09:46:46.932Z,8.80
2023-01-29T09:49:35.920Z,5.07
2023-01-29T09:52:08.790Z,4.47
2023-01-29T09:54:48.868Z,6.93
2023-01-29T09:57:20.779Z,6.50
2023-01-29T09:59:47.695Z,5.40
2023-01-29T10:02:55.353Z,6.17
2023-01-29T10:06:02.540Z,4.70
2023-01-29T10:08:50.089Z,7.17
2023-01-29T10:11:38.297Z,6.43
2023-01-29T10:14:22.219Z,10.00
2023-01-29T10:17:12.265Z,7.80
2023-01-29T10:19:45.034Z,8.00
2023-01-29T10:22:31.286Z,6.57
2023-01-29T10:25:01.193Z,8.23
2023-01-29T10:27:32.772Z,5.20
2023-01-29T10:30:01.312Z,9.43
2023-01-29T10:32:29.391Z,6.53
2023-01-29T10:35:03.862Z,9.20
2023-01-29T10:37:43.699Z,6.13
2023-01-29T10:40:24.492Z,6.90
2023-01-29T10:42:59.694Z,5.80
2023-01-29T10:45:35.331Z,5.00
2023-01-29T10:48:13.960Z,5.37
2023-01-29T10:51:06.058Z,7.50
2023-01-29T10:53:44.552Z,3.77
2023-01-29T10:56:36.208Z,6.50
2023-01-29T10:59:30.451Z,5.77
2023-01-29T11:02:00.398Z,6.80
2023-01-29T11:04:28.982Z,6.07
2023-01-29T11:06:55.690Z,5.33
2023-01-29T11:09:29.316Z,6.20
2023-01-29T11:12:38.355Z,8.50
2023-01-29T11:15:18.929Z,5.63
2023-01-29T11:18:05.481Z,4.73
2023-01-29T11:20:33.670Z,8.10
2023-01-29T11:23:00.562Z,6.80
2023-01-29T11:25:29.062Z,9.97
2023-01-29T11:27:57.574Z,6.33
2023-01-29T11:30:40.586Z,6.40
2023-01-29T11:33:10.219Z,14.20
2023-01-29T11:35:37.149Z,7.70
2023-01-29T11:38:08.398Z,6.07
2023-01-29T11:40:39.771Z,7.77
2023-01-29T11:43:18.286Z,10.13
2023-01-29T11:45:44.949Z,9.07
2023-01-29T11:48:17.479Z,7.70
2023-01-29T11:50:44.789Z,7.13
2023-01-29T11:53:44.955Z,7.17
2023-01-29T11:56:22.027Z,5.50
2023-01-29T11:58:49.555Z,7.10
2023-01-29T12:01:18.881Z,4.73
2023-01-29T12:03:53.296Z,5.27
2023-01-29T12:06:37.164Z,7.10
2023-01-29T12:09:10.325Z,6.23
2023-01-29T12:11:37.712Z,7.37
2023-01-29T12:14:06.474Z,6.20
2023-01-29T12:16:38.771Z,7.40
2023-01-29T12:19:14.198Z,7.03
2023-01-29T12:21:49.802Z,7.93
2023-01-29T12:24:36.543Z,7.27
2023-01-29T12:27:14.781Z,6.50
2023-01-29T12:29:49.698Z,7.07
2023-01-29T12:32:34.908Z,4.87
2023-01-29T12:35:01.617Z,6.00
2023-01-29T12:37:39.340Z,6.50
2023-01-29T12:40:17.181Z,5.40
2023-01-29T12:42:50.212Z,11.70
2023-01-29T12:45:19.684Z,11.43
2023-01-29T12:47:52.670Z,8.83
2023-01-29T12:50:48.517Z,7.97
2023-01-29T12:53:17.921Z,8.57
2023-01-29T12:55:55.484Z,7.23
2023-01-29T12:58:34.398Z,8.63
2023-01-29T13:01:11.190Z,6.80
2023-01-29T13:03:37.860Z,5.53
2023-01-29T13:06:10.919Z,5.97
2023-01-29T13:09:05.128Z,6.77
2023-01-29T13:11:53.860Z,7.20
2023-01-29T13:14:22.318Z,7.33
2023-01-29T13:16:52.979Z,6.53
2023-01-29T13:19:33.407Z,6.93
2023-01-29T13:22:02.791Z,9.23
2023-01-29T13:24:40.268Z,8.13
2023-01-29T13:27:07.738Z,4.63
2023-01-29T13:29:34.681Z,7.80
2023-01-29T13:32:03.633Z,8.53
2023-01-29T13:34:33.091Z,6.30
2023-01-29T13:37:02.962Z,7.13
2023-01-29T13:39:37.988Z,9.30
2023-01-29T13:42:19.628Z,8.33
2023-01-29T13:45:01.924Z,7.13
2023-01-29T13:47:31.020Z,8.23
2023-01-29T13:50:01.691Z,6.40
2023-01-29T13:52:43.141Z,5.97
2023-01-29T13:55:19.367Z,8.63
2023-01-29T13:57:49.045Z,7.83
2023-01-29T14:00:21.696Z,6.37
2023-01-29T14:02:48.862Z,7.03
2023-01-29T14:05:31.039Z,6.40
2023-01-29T14:08:09.362Z,6.47
2023-01-29T14:10:37.659Z,8.37
2023-01-29T14:13:04.373Z,11.43
2023-01-29T14:15:35.772Z,16.47
2023-01-29T14:18:08.654Z,14.23
2023-01-29T14:20:51.935Z,8.43
2023-01-29T14:23:42.094Z,5.47
2023-01-29T14:26:33.722Z,9.40
2023-01-29T14:29:33.777Z,9.10
2023-01-29T14:32:07.513Z,10.03
2023-01-29T14:34:44.552Z,8.50
2023-01-29T14:37:17.287Z,6.23
2023-01-29T14:39:52.577Z,7.57
2023-01-29T14:42:26.651Z,6.53
2023-01-29T14:45:28.792Z,6.33
2023-01-29T14:48:00.574Z,7.80
2023-01-29T14:50:32.933Z,5.97
2023-01-29T14:53:05.443Z,5.70
2023-01-29T14:55:44.747Z,6.70
2023-01-29T14:58:17.788Z,8.17
2023-01-29T15:00:46.686Z,7.50
2023-01-29T15:03:21.126Z,7.20
2023-01-29T15:05:49.466Z,8.83
2023-01-29T15:08:18.413Z,21.63
2023-01-29T15:11:15.353Z,7.57
2023-01-29T15:14:24.111Z,6.37
2023-01-29T15:17:09.376Z,7.30
2023-01-29T15:19:40.360Z,6.80
2023-01-29T15:22:13.023Z,20.93
2023-01-29T15:24:40.821Z,6.03
2023-01-29T15:27:19.683Z,6.90
2023-01-29T15:29:57.709Z,8.10
2023-01-29T15:32:28.802Z,8.03
2023-01-29T15:34:56.521Z,9.40
2023-01-29T15:37:27.962Z,6.47
2023-01-29T15:39:55.019Z,7.73
2023-01-29T15:42:25.868Z,6.80
2023-01-29T15:44:56.042Z,6.27
2023-01-29T15:47:28.500Z,5.50
2023-01-29T15:49:57.617Z,7.20
2023-01-29T15:52:28.543Z,8.17
2023-01-29T15:54:56.852Z,7.00
2023-01-29T15:57:33.272Z,7.23
2023-01-29T16:00:00.364Z,6.87
2023-01-29T16:02:37.294Z,10.23
2023-01-29T16:05:07.153Z,10.90
2023-01-29T16:07:34.492Z,7.57
2023-01-29T16:10:01.581Z,13.10
2023-01-29T16:12:28.856Z,10.60
2023-01-29T16:14:56.980Z,8.17
2023-01-29T16:17:27.233Z,9.40
2023-01-29T16:20:01.807Z,16.53
2023-01-29T16:22:46.845Z,17.50
2023-01-29T16:25:15.287Z,17.10
2023-01-29T16:27:43.866Z,15.10
2023-01-29T16:30:16.357Z,14.80
2023-01-29T16:32:43.740Z,16.07
2023-01-29T16:35:15.808Z,11.63
2023-01-29T16:37:43.463Z,11.60
2023-01-29T16:40:26.933Z,7.50
2023-01-29T16:43:17.176Z,9.03
2023-01-29T16:46:02.423Z,6.40
2023-01-29T16:48:33.814Z,5.00
2023-01-29T16:51:13.919Z,11.83
2023-01-29T16:53:41.029Z,6.43
2023-01-29T16:56:08.765Z,13.03
2023-01-29T16:58:35.818Z,9.10
2023-01-29T17:01:05.042Z,12.70
2023-01-29T17:03:33.833Z,12.53
2023-01-29T17:06:10.373Z,18.33
2023-01-29T17:08:37.884Z,20.07
2023-01-29T17:11:05.592Z,17.77
2023-01-29T17:13:38.809Z,28.23
2023-01-29T17:16:23.853Z,24.67
2023-01-29T17:18:50.811Z,33.07
2023-01-29T17:21:17.563Z,26.50
2023-01-29T17:23:44.427Z,19.33
2023-01-29T17:26:13.314Z,30.93
2023-01-29T17:28:41.351Z,23.00
2023-01-29T17:31:08.619Z,25.40
2023-01-29T17:33:37.471Z,23.50
2023-01-29T17:36:04.695Z,21.90
2023-01-29T17:38:32.211Z,31.10
2023-01-29T17:41:20.198Z,22.50
2023-01-29T17:43:46.987Z,21.97
2023-01-29T17:46:15.318Z,22.43
2023-01-29T17:48:42.533Z,16.70
2023-01-29T17:51:12.191Z,11.97
2023-01-29T17:53:47.184Z,13.40
2023-01-29T17:56:32.320Z,8.47
2023-01-29T17:58:59.084Z,13.03
2023-01-29T18:01:25.934Z,9.10
2023-01-29T18:03:52.682Z,9.83
2023-01-29T18:06:27.798Z,18.97
2023-01-29T18:08:54.667Z,18.67
2023-01-29T18:11:21.427Z,18.10
2023-01-29T18:13:48.217Z,17.60
2023-01-29T18:16:15.034Z,13.67
2023-01-29T18:18:41.905Z,12.67
2023-01-29T18:21:08.610Z,9.70
2023-01-29T18:23:35.385Z,7.87
2023-01-29T18:26:02.123Z,7.27
2023-01-29T18:28:29.847Z,15.33
2023-01-29T18:30:56.598Z,5.40
2023-01-29T18:33:24.310Z,6.73
2023-01-29T18:35:51.075Z,7.30
2023-01-29T18:38:17.986Z,8.60
2023-01-29T18:40:44.652Z,7.17
2023-01-29T18:43:11.438Z,9.57
2023-01-29T18:45:38.194Z,9.53
2023-01-29T18:48:05.334Z,8.43
2023-01-29T18:50:32.148Z,9.70
2023-01-29T18:52:59.238Z,8.23
2023-01-29T18:55:26.686Z,11.20
2023-01-29T18:58:26.784Z,9.80
2023-01-29T19:00:41.453Z,8.53
2023-01-29T19:03:10.154Z,8.17
2023-01-29T19:05:37.023Z,11.80
2023-01-29T19:08:05.400Z,8.73
2023-01-29T19:10:32.687Z,7.40
2023-01-29T19:12:59.405Z,7.27
2023-01-29T19:15:26.166Z,6.30
2023-01-29T19:17:53.676Z,6.80
2023-01-29T19:20:20.690Z,9.70
2023-01-29T19:22:47.503Z,6.23
2023-01-29T19:25:14.549Z,7.10
2023-01-29T19:27:41.187Z,5.70
2023-01-29T19:30:12.891Z,5.93
2023-01-29T19:32:40.700Z,6.27
2023-01-29T19:35:07.605Z,9.40
2023-01-29T19:37:34.397Z,5.33
2023-01-29T19:40:01.134Z,10.13
2023-01-29T19:42:28.255Z,10.87
2023-01-29T19:44:55.022Z,9.20
2023-01-29T19:47:22.542Z,5.23
2023-01-29T19:49:50.318Z,6.53
2023-01-29T19:52:49.885Z,6.03
2023-01-29T19:55:19.124Z,9.87
2023-01-29T19:57:46.127Z,8.07
2023-01-29T20:00:14.931Z,10.30
2023-01-29T20:02:41.656Z,11.40
2023-01-29T20:05:11.524Z,5.90
2023-01-29T20:07:42.529Z,6.50
2023-01-29T20:10:11.612Z,6.30
2023-01-29T20:12:38.751Z,7.90
2023-01-29T20:15:08.050Z,8.33
2023-01-29T20:17:34.748Z,5.30
2023-01-29T20:20:01.509Z,7.30
2023-01-29T20:22:29.658Z,15.97
2023-01-29T20:24:56.454Z,15.43
2023-01-29T20:27:23.211Z,15.40
2023-01-29T20:29:52.084Z,15.70
2023-01-29T20:32:18.984Z,9.13
2023-01-29T20:34:49.679Z,12.63
2023-01-29T20:37:16.410Z,12.93
2023-01-29T20:39:43.054Z,12.43
2023-01-29T20:42:09.674Z,8.37
2023-01-29T20:44:36.335Z,8.93
2023-01-29T20:47:04.155Z,16.17
2023-01-29T20:49:31.343Z,8.37
2023-01-29T20:51:58.379Z,11.47
2023-01-29T20:54:25.151Z,11.43
2023-01-29T20:56:51.859Z,15.37
2023-01-29T20:59:18.893Z,7.53
2023-01-29T21:01:45.840Z,5.10
2023-01-29T21:04:12.593Z,8.07
2023-01-29T21:06:39.231Z,8.00
2023-01-29T21:09:06.039Z,10.43
2023-01-29T21:11:33.676Z,6.03
2023-01-29T21:14:01.965Z,7.53
2023-01-29T21:16:28.937Z,9.00
2023-01-29T21:18:56.922Z,8.87
2023-01-29T21:21:24.095Z,5.17
2023-01-29T21:23:50.822Z,7.00
2023-01-29T21:26:18.890Z,6.77
2023-01-29T21:28:46.289Z,5.57
2023-01-29T21:31:14.587Z,6.47
2023-01-29T21:33:41.408Z,7.00
2023-01-29T21:36:10.135Z,3.67
2023-01-29T21:38:37.242Z,8.23
2023-01-29T21:41:06.064Z,4.73
2023-01-29T21:43:33.092Z,6.27
2023-01-29T21:46:03.990Z,6.53
2023-01-29T21:48:31.279Z,3.17
2023-01-29T21:50:57.900Z,11.10
2023-01-29T21:53:24.607Z,5.77
2023-01-29T21:55:51.890Z,7.83
2023-01-29T21:58:20.727Z,5.20
2023-01-29T22:00:48.931Z,4.57
2023-01-29T22:03:15.713Z,7.17
2023-01-29T22:05:42.434Z,6.53
2023-01-29T22:08:09.746Z,4.80
2023-01-29T22:10:36.714Z,4.43
2023-01-29T22:13:03.808Z,4.07
2023-01-29T22:15:30.839Z,4.93
2023-01-29T22:17:57.566Z,2.87
2023-01-29T22:20:30.141Z,2.10
2023-01-29T22:23:00.730Z,8.50
2023-01-29T22:25:27.917Z,3.87
2023-01-29T22:27:54.741Z,3.07
2023-01-29T22:30:23.405Z,6.17
2023-01-29T22:32:50.598Z,3.97
2023-01-29T22:35:17.577Z,3.03
2023-01-29T22:37:45.126Z,6.63
2023-01-29T22:40:12.711Z,6.27
2023-01-29T22:42:39.375Z,5.07
2023-01-29T22:45:07.706Z,8.30
2023-01-29T22:47:34.358Z,5.60
2023-01-29T22:50:00.991Z,6.30
2023-01-29T22:52:28.549Z,2.90
2023-01-29T22:54:55.281Z,4.40
2023-01-29T22:57:22.961Z,8.47
2023-01-29T22:59:49.623Z,11.43
2023-01-29T23:02:16.725Z,4.37
2023-01-29T23:04:43.374Z,11.10
2023-01-29T23:07:10.329Z,9.80
2023-01-29T23:09:36.932Z,9.50
2023-01-29T23:12:03.837Z,1.70
2023-01-29T23:14:30.484Z,3.73
2023-01-29T23:16:57.169Z,2.63
2023-01-29T23:19:23.785Z,4.97
2023-01-29T23:21:50.487Z,3.53
2023-01-29T23:24:17.318Z,5.20
2023-01-29T23:27:02.586Z,1.93
2023-01-29T23:29:29.224Z,1.73
2023-01-29T23:31:55.861Z,2.20
2023-01-29T23:34:22.595Z,3.00
2023-01-29T23:36:49.333Z,2.43
2023-01-29T23:39:16.704Z,2.20
2023-01-29T23:41:43.864Z,5.40
2023-01-29T23:44:10.478Z,3.07
2023-01-29T23:46:37.154Z,3.80
2023-01-29T23:49:03.892Z,7.70
2023-01-29T23:51:30.569Z,1.87
2023-01-29T23:53:57.309Z,3.03
2023-01-29T23:56:24.046Z,6.13
2023-01-29T23:58:57.643Z,4.50
